Time;durP1;ratioP1;P1;durP2;ratioP2;P2;SDS_P1;SDS_P2;PMS_P1;PMS_P2;Temp;Humidity;BMP_temperature;BMP_pressure;BME280_temperature;BME280_humidity;BME280_pressure;Samples;Min_cycle;Max_cycle;Signal;HPM_P1;HPM_P2
2021/05/12 00:02:04;;;;;;;7.57;3.60;;;;;;;14.87;61.75;97592.02;126079;1101;22775;-78
2021/05/12 00:04:31;;;;;;;7.00;4.33;;;;;;;14.80;61.62;97594.31;125825;1096;22916;-78
2021/05/12 00:06:59;;;;;;;5.95;4.45;;;;;;;14.68;61.95;97583.79;126045;1097;26219;-78
2021/05/12 00:09:26;;;;;;;8.07;4.90;;;;;;;14.63;62.47;97589.33;126046;1097;22751;-78
2021/05/12 00:11:54;;;;;;;5.90;3.75;;;;;;;14.58;62.92;97595.67;125809;1102;22855;-78
2021/05/12 00:14:23;;;;;;;6.33;4.93;;;;;;;14.40;63.23;97599.16;126074;1096;26244;-78
2021/05/12 00:16:50;;;;;;;6.35;4.28;;;;;;;14.30;62.78;97582.83;126121;1101;22757;-78
2021/05/12 00:19:19;;;;;;;4.90;4.10;;;;;;;14.28;63.27;97582.31;125854;1102;22751;-78
2021/05/12 00:21:53;;;;;;;;;;;;;;;14.32;63.37;97586.90;126080;1101;22791;-78
2021/05/12 00:24:20;;;;;;;5.85;3.40;;;;;;;14.34;63.88;97583.88;126109;1101;21474;-78
2021/05/12 00:26:48;;;;;;;7.95;4.05;;;;;;;14.33;63.70;97585.80;126139;1101;22841;-78
2021/05/12 00:29:17;;;;;;;10.05;4.70;;;;;;;14.13;64.39;97586.02;126040;1096;26299;-78
2021/05/12 00:31:45;;;;;;;;;;;;;;;13.98;64.67;97578.78;125949;1096;26210;-78
2021/05/12 00:34:12;;;;;;;5.95;4.40;;;;;;;13.88;64.90;97592.55;126068;1103;23127;-78
2021/05/12 00:36:40;;;;;;;6.80;4.45;;;;;;;13.80;65.56;97596.73;125870;1101;22819;-78
2021/05/12 00:39:08;;;;;;;6.90;5.17;;;;;;;13.71;65.61;97595.73;125830;1102;22909;-78
2021/05/12 00:41:41;;;;;;;11.85;4.70;;;;;;;13.66;65.47;97589.18;126058;1101;22771;-78
2021/05/12 00:44:19;;;;;;;9.00;5.17;;;;;;;13.66;65.92;97591.91;125866;1101;22857;-78
2021/05/12 00:47:05;;;;;;;9.87;5.07;;;;;;;13.64;66.34;97601.52;125858;1102;22758;-78
2021/05/12 00:49:35;;;;;;;10.85;4.95;;;;;;;13.64;65.69;97598.80;125874;1101;24428;-78
2021/05/12 00:52:03;;;;;;;8.30;4.43;;;;;;;13.68;65.66;97599.84;126120;1101;22831;-78
2021/05/12 00:54:32;;;;;;;8.58;4.70;;;;;;;13.70;65.82;97597.63;126038;1101;22794;-78
2021/05/12 00:57:00;;;;;;;9.53;4.65;;;;;;;13.71;65.39;97587.52;126040;1101;24383;-78
2021/05/12 00:59:34;;;;;;;8.10;4.35;;;;;;;13.71;65.63;97593.00;126076;1101;22775;-78
2021/05/12 01:02:16;;;;;;;6.90;4.13;;;;;;;13.67;66.05;97584.55;125804;1104;23061;-78
2021/05/12 01:04:44;;;;;;;13.40;4.30;;;;;;;13.61;65.56;97586.48;125792;1104;22777;-78
2021/05/12 01:07:27;;;;;;;8.20;4.25;;;;;;;13.61;65.67;97591.15;126026;1101;22758;-78
2021/05/12 01:09:54;;;;;;;7.93;4.33;;;;;;;13.58;65.65;97589.81;126024;1101;22744;-78
2021/05/12 01:12:22;;;;;;;8.05;4.10;;;;;;;13.59;65.39;97593.36;125818;1097;27157;-78
2021/05/12 01:14:50;;;;;;;7.25;4.40;;;;;;;13.58;65.42;97594.45;125851;1102;24505;-78
2021/05/12 01:17:17;;;;;;;6.70;4.40;;;;;;;13.50;66.13;97595.08;125811;1104;24435;-78
2021/05/12 01:19:48;;;;;;;10.83;4.68;;;;;;;13.36;65.61;97584.77;125915;1104;22787;-78
2021/05/12 01:22:16;;;;;;;7.40;4.70;;;;;;;13.30;66.40;97589.44;125950;1096;26253;-78
2021/05/12 01:24:44;;;;;;;7.45;5.10;;;;;;;13.24;66.50;97582.38;125858;1096;26107;-78
2021/05/12 01:27:12;;;;;;;6.65;4.35;;;;;;;13.15;66.63;97585.98;125819;1104;22802;-78
2021/05/12 01:29:40;;;;;;;6.60;4.50;;;;;;;13.09;66.23;97574.27;125819;1102;22767;-78
2021/05/12 01:32:10;;;;;;;8.70;5.00;;;;;;;13.02;66.66;97577.31;125890;1102;23038;-78
2021/05/12 01:34:37;;;;;;;6.07;4.43;;;;;;;13.01;66.97;97569.39;126159;1097;25954;-78
2021/05/12 01:37:05;;;;;;;8.47;4.93;;;;;;;13.00;66.61;97576.78;126090;1101;24556;-78
2021/05/12 01:39:32;;;;;;;10.50;4.55;;;;;;;12.98;66.96;97569.95;126115;1101;24279;-78
2021/05/12 01:42:00;;;;;;;10.40;5.20;;;;;;;12.97;67.54;97568.33;126057;1101;22828;-78
2021/05/12 01:44:29;;;;;;;12.10;4.65;;;;;;;12.99;67.20;97571.59;125877;1096;26226;-78
2021/05/12 01:46:56;;;;;;;13.60;4.70;;;;;;;12.98;67.20;97570.79;125798;1101;22771;-78
2021/05/12 01:49:29;;;;;;;7.75;4.00;;;;;;;12.96;67.56;97555.75;125819;1105;23853;-78
2021/05/12 01:52:10;;;;;;;7.95;4.60;;;;;;;12.94;67.53;97569.70;125825;1104;22945;-78
2021/05/12 01:54:37;;;;;;;9.75;4.50;;;;;;;12.92;67.67;97558.23;125827;1096;26588;-78
2021/05/12 01:57:06;;;;;;;6.75;4.25;;;;;;;12.91;67.25;97557.42;125828;1104;24420;-78
2021/05/12 01:59:35;;;;;;;6.63;4.20;;;;;;;12.91;67.02;97564.81;125926;1102;22913;-78
2021/05/12 02:02:02;;;;;;;;;;;;;;;12.93;66.75;97554.41;125895;1101;23000;-78
2021/05/12 02:04:30;;;;;;;9.20;4.60;;;;;;;12.94;67.37;97558.77;126139;1096;24713;-78
2021/05/12 02:06:57;;;;;;;7.70;4.05;;;;;;;12.94;66.58;97558.77;125933;1102;22932;-78
2021/05/12 02:09:25;;;;;;;10.25;4.50;;;;;;;12.95;66.50;97563.14;125920;1102;22743;-78
2021/05/12 02:11:53;;;;;;;5.20;3.90;;;;;;;12.93;67.04;97556.34;126107;1101;22757;-78
2021/05/12 02:14:21;;;;;;;11.10;5.50;;;;;;;12.78;67.31;97547.11;125783;1101;22836;-78
2021/05/12 02:16:48;;;;;;;6.05;4.50;;;;;;;12.72;67.48;97557.25;125822;1103;22812;-78
2021/05/12 02:19:30;;;;;;;10.00;4.65;;;;;;;12.61;67.03;97558.41;125863;1101;24380;-78
2021/05/12 02:21:57;;;;;;;8.45;4.90;;;;;;;12.58;67.49;97563.62;125828;1101;22771;-78
2021/05/12 02:24:25;;;;;;;5.30;4.05;;;;;;;12.48;67.44;97556.27;125812;1102;22768;-78
2021/05/12 02:26:53;;;;;;;7.75;4.95;;;;;;;12.39;68.12;97556.03;125853;1096;27465;-78
2021/05/12 02:29:21;;;;;;;7.95;4.90;;;;;;;12.31;68.39;97554.70;126052;1101;22771;-78
2021/05/12 02:31:48;;;;;;;6.63;4.67;;;;;;;12.29;68.94;97545.17;126038;1101;22778;-78
2021/05/12 02:34:16;;;;;;;11.07;5.03;;;;;;;12.26;68.48;97546.53;125804;1101;22744;-78
2021/05/12 02:36:43;;;;;;;12.43;5.73;;;;;;;12.24;68.27;97539.73;126069;1101;24576;-78
2021/05/12 02:39:11;;;;;;;7.35;5.25;;;;;;;12.19;68.57;97540.55;126032;1101;22743;-78
2021/05/12 02:41:38;;;;;;;6.50;4.30;;;;;;;12.16;68.64;97541.09;125894;1096;26219;-78
2021/05/12 02:44:06;;;;;;;7.30;4.10;;;;;;;12.12;69.33;97534.57;125780;1101;22779;-78
2021/05/12 02:46:34;;;;;;;8.80;5.00;;;;;;;12.11;68.91;97522.01;125884;1102;22776;-78
2021/05/12 02:49:02;;;;;;;6.15;4.45;;;;;;;12.12;69.38;97531.84;125849;1101;22751;-78
2021/05/12 02:51:30;;;;;;;10.35;5.20;;;;;;;12.08;69.47;97528.85;126159;1101;22853;-78
2021/05/12 02:53:58;;;;;;;7.20;4.93;;;;;;;12.07;69.18;97526.39;126112;1101;22900;-78
2021/05/12 02:56:25;;;;;;;6.47;4.43;;;;;;;12.03;69.75;97526.14;126063;1101;22746;-78
2021/05/12 02:58:53;;;;;;;10.60;5.15;;;;;;;12.00;69.33;97526.69;125852;1097;25964;-78
2021/05/12 03:01:21;;;;;;;7.03;4.50;;;;;;;11.99;69.33;97519.61;126110;1101;22819;-79
2021/05/12 03:03:48;;;;;;;6.40;4.20;;;;;;;12.04;69.61;97524.22;126070;1101;22731;-79
2021/05/12 03:06:16;;;;;;;9.90;4.53;;;;;;;12.10;69.67;97531.31;126064;1101;22722;-79
2021/05/12 03:08:44;;;;;;;10.25;5.10;;;;;;;12.14;69.33;97527.73;125909;1096;22820;-79
2021/05/12 03:11:12;;;;;;;8.90;4.85;;;;;;;12.19;69.32;97523.37;125817;1102;22813;-79
2021/05/12 03:13:39;;;;;;;7.60;4.40;;;;;;;12.19;68.98;97532.36;126058;1101;22731;-79
2021/05/12 03:16:07;;;;;;;8.00;5.20;;;;;;;12.14;68.99;97537.84;125838;1096;22758;-79
2021/05/12 03:18:34;;;;;;;7.45;4.75;;;;;;;12.11;68.88;97528.30;125841;1102;22819;-79
2021/05/12 03:21:03;;;;;;;12.05;5.20;;;;;;;12.10;69.34;97528.58;126093;1097;22731;-78
2021/05/12 03:23:31;;;;;;;9.05;4.80;;;;;;;12.09;68.96;97525.04;125784;1101;22768;-78
2021/05/12 03:25:59;;;;;;;8.20;4.10;;;;;;;12.10;69.42;97531.31;126133;1101;22737;-79
2021/05/12 03:28:27;;;;;;;7.80;5.10;;;;;;;12.09;69.30;97530.50;125980;1101;22740;-79
2021/05/12 03:30:54;;;;;;;5.40;4.90;;;;;;;12.08;69.40;97531.58;125926;1101;22744;-79
2021/05/12 03:33:22;;;;;;;9.57;5.20;;;;;;;12.04;69.22;97525.05;126180;1096;25890;-79
2021/05/12 03:35:50;;;;;;;10.05;5.05;;;;;;;12.03;69.70;97526.14;126302;1101;24377;-78
2021/05/12 03:38:18;;;;;;;9.20;4.60;;;;;;;12.06;69.61;97522.05;125937;1103;24864;-79
2021/05/12 03:40:45;;;;;;;10.30;5.40;;;;;;;12.06;69.60;97525.59;125963;1101;24573;-79
2021/05/12 03:43:13;;;;;;;11.73;5.33;;;;;;;12.09;68.99;97524.20;126246;1101;22734;-79
2021/05/12 03:45:41;;;;;;;11.25;4.95;;;;;;;12.12;68.71;97527.20;125925;1102;22741;-79
2021/05/12 03:48:23;;;;;;;7.90;4.65;;;;;;;12.20;69.58;97525.83;125919;1101;22810;-79
2021/05/12 03:50:50;;;;;;;8.15;4.55;;;;;;;12.24;69.26;97532.34;125999;1101;22838;-79
2021/05/12 03:53:32;;;;;;;8.50;4.85;;;;;;;12.27;68.82;97528.23;125983;1102;22828;-79
2021/05/12 03:56:00;;;;;;;10.90;5.50;;;;;;;12.29;69.20;97532.33;126187;1101;22802;-79
2021/05/12 03:58:27;;;;;;;12.40;4.95;;;;;;;12.31;68.92;97527.41;126353;1101;22706;-79
2021/05/12 04:00:57;;;;;;;9.43;4.70;;;;;;;12.35;69.61;97525.73;126198;1101;22759;-78
2021/05/12 04:03:28;;;;;;;8.50;5.40;;;;;;;12.37;68.80;97530.92;126137;1101;23498;-78
2021/05/12 04:05:56;;;;;;;5.90;4.40;;;;;;;12.39;69.03;97526.00;126012;1101;24418;-78
2021/05/12 04:08:24;;;;;;;6.00;4.58;;;;;;;12.42;69.15;97522.72;125914;1101;24129;-79
2021/05/12 04:10:53;;;;;;;9.37;4.20;;;;;;;12.47;68.69;97519.97;126189;1096;22744;-79
2021/05/12 04:13:21;;;;;;;7.20;4.00;;;;;;;12.52;68.69;97528.13;126003;1101;22744;-79
2021/05/12 04:16:04;;;;;;;8.20;4.50;;;;;;;12.59;68.68;97521.53;126055;1101;22771;-78
2021/05/12 04:18:31;;;;;;;9.03;5.43;;;;;;;12.64;69.00;97522.34;126258;1101;22764;-78
2021/05/12 04:20:59;;;;;;;14.50;4.57;;;;;;;12.68;68.33;97520.68;126183;1096;22740;-79
2021/05/12 04:23:26;;;;;;;11.15;4.85;;;;;;;12.71;68.30;97520.13;126069;1096;26206;-79
2021/05/12 04:25:54;;;;;;;10.90;4.63;;;;;;;12.75;68.34;97520.38;126199;1101;22834;-79
2021/05/12 04:28:21;;;;;;;10.75;5.15;;;;;;;12.80;67.65;97520.34;125965;1096;25906;-79
2021/05/12 04:31:03;;;;;;;11.20;5.10;;;;;;;12.85;68.08;97517.55;126053;1101;22957;-79
2021/05/12 04:33:31;;;;;;;9.05;4.40;;;;;;;12.92;67.67;97522.71;126278;1101;22778;-79
2021/05/12 04:35:59;;;;;;;8.27;4.33;;;;;;;12.96;67.48;97514.77;126096;1101;24551;-79
2021/05/12 04:38:26;;;;;;;11.05;5.65;;;;;;;13.02;67.06;97516.38;126161;1096;22764;-79
2021/05/12 04:41:08;;;;;;;8.30;4.20;;;;;;;13.10;66.97;97518.48;126184;1101;22913;-79
2021/05/12 04:43:35;;;;;;;9.83;4.50;;;;;;;13.17;67.01;97520.90;126148;1101;22832;-79
2021/05/12 04:46:03;;;;;;;7.70;4.45;;;;;;;13.25;66.83;97523.03;126472;1096;26335;-79
2021/05/12 04:48:31;;;;;;;8.83;4.27;;;;;;;13.31;66.27;97516.44;126431;1101;22794;-79
2021/05/12 04:50:59;;;;;;;5.95;4.35;;;;;;;13.38;65.95;97518.86;125999;1101;22777;-79
2021/05/12 04:53:27;;;;;;;8.90;4.50;;;;;;;13.46;65.45;97515.52;126358;1096;26210;-79
2021/05/12 04:55:54;;;;;;;9.23;4.17;;;;;;;13.51;65.43;97515.47;125965;1101;22744;-79
2021/05/12 04:58:36;;;;;;;8.25;4.35;;;;;;;13.57;65.62;97524.45;126226;1101;22913;-79
2021/05/12 05:01:04;;;;;;;7.10;4.05;;;;;;;13.62;65.69;97517.00;126041;1096;24551;-79
2021/05/12 05:03:32;;;;;;;7.35;4.10;;;;;;;13.66;65.95;97517.23;125910;1096;26287;-79
2021/05/12 05:05:59;;;;;;;7.93;4.20;;;;;;;13.71;65.22;97513.65;125900;1102;24421;-79
2021/05/12 05:08:30;;;;;;;9.05;4.35;;;;;;;13.73;64.80;97504.03;125928;1101;22744;-79
2021/05/12 05:11:11;;;;;;;6.50;4.50;;;;;;;13.79;65.46;97507.53;126259;1096;26660;-79
2021/05/12 05:13:39;;;;;;;7.10;4.35;;;;;;;13.82;64.74;97505.03;126259;1101;22748;-79
2021/05/12 05:16:09;;;;;;;10.27;4.93;;;;;;;13.88;64.45;97507.71;126177;1101;24450;-79
2021/05/12 05:18:38;;;;;;;7.20;4.65;;;;;;;13.93;64.55;97511.20;126265;1095;25983;-79
2021/05/12 05:21:07;;;;;;;8.07;4.47;;;;;;;13.99;64.28;97507.32;125976;1102;22740;-79
2021/05/12 05:23:36;;;;;;;8.28;4.30;;;;;;;14.05;64.82;97513.55;126294;1101;22747;-79
2021/05/12 05:26:17;;;;;;;8.50;4.50;;;;;;;14.12;63.92;97499.52;126169;1101;22771;-79
2021/05/12 05:28:44;;;;;;;8.97;5.00;;;;;;;14.19;63.93;97511.74;125951;1101;22887;-79
2021/05/12 05:31:12;;;;;;;8.90;4.40;;;;;;;14.29;64.45;97501.77;125940;1101;22750;-79
2021/05/12 05:33:58;;;;;;;6.80;4.30;;;;;;;14.40;63.74;97514.24;126276;1101;22740;-78
2021/05/12 05:36:44;;;;;;;9.75;4.85;;;;;;;14.48;63.76;97508.09;126216;1095;27125;-78
2021/05/12 05:39:36;;;;;;;9.65;4.50;;;;;;;14.58;63.15;97510.73;126143;1096;27154;-78
2021/05/12 05:42:23;;;;;;;7.65;4.85;;;;;;;14.67;63.62;97507.34;126213;1096;27119;-78
2021/05/12 05:45:09;;;;;;;6.43;4.03;;;;;;;14.76;63.33;97508.31;126149;1101;22768;-78
2021/05/12 05:47:56;;;;;;;9.40;4.37;;;;;;;14.85;63.33;97502.98;125926;1096;22748;-79
2021/05/12 05:50:42;;;;;;;5.65;4.25;;;;;;;14.92;62.88;97506.97;126073;1101;22744;-79
2021/05/12 05:53:29;;;;;;;6.90;5.10;;;;;;;14.98;62.51;97502.25;126142;1101;22761;-79
2021/05/12 05:56:15;;;;;;;7.40;4.17;;;;;;;15.03;61.96;97510.38;126156;1096;22768;-79
2021/05/12 05:59:15;;;;;;;9.03;4.77;;;;;;;15.09;62.02;97502.91;126248;1101;22748;-79
2021/05/12 06:02:02;;;;;;;10.90;4.95;;;;;;;15.14;62.19;97509.13;125965;1101;22764;-79
2021/05/12 06:05:07;;;;;;;11.60;4.87;;;;;;;15.22;61.76;97501.33;126026;1096;22879;-79
2021/05/12 06:07:53;;;;;;;7.13;4.40;;;;;;;15.29;61.84;97499.82;126296;1096;24445;-79
2021/05/12 06:10:40;;;;;;;7.50;4.85;;;;;;;15.38;61.84;97491.72;126292;1101;22748;-79
2021/05/12 06:13:26;;;;;;;8.30;4.97;;;;;;;15.45;61.47;97494.89;126349;1101;23047;-79
2021/05/12 06:16:12;;;;;;;9.35;4.85;;;;;;;15.53;61.77;97502.45;126371;1101;23509;-79
2021/05/12 06:19:16;;;;;;;9.70;5.00;;;;;;;15.62;61.28;97493.53;126048;1101;23194;-79
2021/05/12 06:22:03;;;;;;;10.50;4.90;;;;;;;15.70;61.12;97495.56;126168;1101;23446;-79
2021/05/12 06:24:49;;;;;;;7.17;4.57;;;;;;;15.78;60.33;97494.91;126417;1101;22834;-79
2021/05/12 06:27:39;;;;;;;9.70;5.10;;;;;;;15.86;60.75;97501.62;126178;1101;22741;-79
2021/05/12 06:30:26;;;;;;;5.18;4.20;;;;;;;15.96;61.15;97498.69;126161;1101;22741;-79
2021/05/12 06:33:12;;;;;;;7.70;4.93;;;;;;;16.03;60.45;97499.09;126240;1101;22799;-79
2021/05/12 06:36:00;;;;;;;8.17;4.47;;;;;;;16.13;60.51;97498.91;126244;1101;22765;-79
2021/05/12 06:38:47;;;;;;;11.58;4.83;;;;;;;16.24;60.44;97504.20;126347;1096;22761;-79
2021/05/12 06:41:16;;;;;;;9.70;4.83;;;;;;;16.33;60.03;97491.37;126031;1096;27218;-79
2021/05/12 06:43:44;;;;;;;11.28;4.50;;;;;;;16.42;60.33;97494.22;126286;1101;24422;-79
2021/05/12 06:46:11;;;;;;;8.25;4.73;;;;;;;16.50;60.32;97490.72;126346;1101;22910;-79
2021/05/12 06:48:42;;;;;;;7.73;4.67;;;;;;;16.61;60.05;97496.81;126322;1101;22722;-79
2021/05/12 06:51:12;;;;;;;8.70;4.85;;;;;;;16.69;59.83;97485.09;126298;1101;24424;-79
2021/05/12 06:53:40;;;;;;;7.53;4.90;;;;;;;16.78;59.21;97483.23;126527;1101;23551;-79
2021/05/12 06:56:09;;;;;;;11.05;4.90;;;;;;;16.87;58.78;97475.93;126220;1101;22747;-79
2021/05/12 06:58:41;;;;;;;7.95;4.58;;;;;;;16.98;59.25;97484.76;126363;1101;22832;-79
2021/05/12 07:01:15;;;;;;;10.85;4.90;;;;;;;17.06;58.67;97475.74;126280;1096;25902;-79
2021/05/12 07:03:57;;;;;;;10.38;4.83;;;;;;;17.19;58.85;97478.75;126238;1096;22879;-79
2021/05/12 07:06:24;;;;;;;9.40;5.47;;;;;;;17.30;57.87;97480.14;126344;1101;22765;-79
2021/05/12 07:08:52;;;;;;;7.58;4.55;;;;;;;17.42;57.50;97487.81;126167;1101;22809;-79
2021/05/12 07:11:21;;;;;;;7.60;5.20;;;;;;;17.52;58.29;97482.05;126093;1101;22748;-79
2021/05/12 07:13:52;;;;;;;9.83;5.17;;;;;;;17.65;58.17;97472.08;125949;1096;26206;-79
2021/05/12 07:16:20;;;;;;;12.05;4.93;;;;;;;17.76;57.99;97476.20;126213;1101;24687;-79
2021/05/12 07:18:48;;;;;;;7.18;4.80;;;;;;;17.90;57.48;97469.80;125891;1101;22764;-79
2021/05/12 07:21:15;;;;;;;6.50;4.47;;;;;;;18.01;57.68;97466.46;125827;1096;22823;-79
2021/05/12 07:23:44;;;;;;;6.43;4.73;;;;;;;18.10;56.90;97458.23;125896;1096;26353;-79
2021/05/12 07:26:12;;;;;;;7.33;5.13;;;;;;;18.23;57.65;97450.97;126153;1101;22754;-79
2021/05/12 07:28:42;;;;;;;6.17;4.43;;;;;;;18.36;57.00;97457.48;125948;1103;22748;-79
2021/05/12 07:31:11;;;;;;;6.40;4.30;;;;;;;18.48;56.68;97451.35;126136;1101;22794;-79
2021/05/12 07:33:39;;;;;;;10.33;4.70;;;;;;;18.63;57.26;97458.34;125961;1096;22785;-79
2021/05/12 07:36:07;;;;;;;7.50;5.28;;;;;;;18.75;55.96;97458.52;126128;1096;25839;-79
2021/05/12 07:38:48;;;;;;;7.78;4.28;;;;;;;18.89;55.40;97450.12;126122;1101;22805;-79
2021/05/12 07:41:16;;;;;;;6.83;4.00;;;;;;;19.00;55.28;97440.40;126139;1101;22744;-79
2021/05/12 07:43:57;;;;;;;7.18;4.78;;;;;;;19.14;55.07;97451.24;126120;1101;22745;-79
2021/05/12 07:46:39;;;;;;;7.40;4.60;;;;;;;19.30;54.59;97448.78;126116;1101;22853;-79
2021/05/12 07:49:20;;;;;;;6.07;4.53;;;;;;;19.42;54.07;97446.16;126079;1101;22737;-79
2021/05/12 07:51:48;;;;;;;8.05;4.55;;;;;;;19.54;52.66;97437.22;126101;1101;22768;-79
2021/05/12 07:54:16;;;;;;;7.75;4.28;;;;;;;19.66;53.11;97437.34;126155;1101;22803;-79
2021/05/12 07:56:43;;;;;;;10.38;3.88;;;;;;;19.80;52.55;97434.41;125871;1102;22775;-78
2021/05/12 07:59:11;;;;;;;8.97;4.13;;;;;;;19.95;51.87;97435.00;126236;1101;22806;-78
2021/05/12 08:01:42;;;;;;;6.40;3.73;;;;;;;20.09;51.91;97430.05;126081;1101;22958;-79
2021/05/12 08:04:10;;;;;;;9.55;3.70;;;;;;;20.24;52.05;97432.26;126112;1101;22747;-79
2021/05/12 08:06:38;;;;;;;7.93;3.80;;;;;;;20.40;52.08;97429.72;126088;1096;27209;-79
2021/05/12 08:09:07;;;;;;;7.38;3.55;;;;;;;20.54;51.14;97428.64;126077;1101;22762;-79
2021/05/12 08:11:35;;;;;;;6.73;3.73;;;;;;;20.67;51.01;97433.16;126143;1095;26336;-79
2021/05/12 08:14:08;;;;;;;6.10;4.10;;;;;;;20.81;50.39;97436.45;125880;1101;22787;-79
2021/05/12 08:16:38;;;;;;;6.38;3.75;;;;;;;20.95;50.48;97429.86;126159;1101;22743;-79
2021/05/12 08:19:06;;;;;;;7.88;4.33;;;;;;;21.06;50.43;97425.52;126208;1101;22768;-79
2021/05/12 08:21:35;;;;;;;6.20;4.07;;;;;;;21.18;49.62;97421.99;126129;1101;22805;-79
2021/05/12 08:24:03;;;;;;;6.67;3.57;;;;;;;21.30;50.06;97423.98;125884;1101;23711;-80
2021/05/12 08:26:31;;;;;;;7.38;4.30;;;;;;;21.43;49.67;97426.45;125953;1101;22761;-79
2021/05/12 08:29:00;;;;;;;6.55;3.53;;;;;;;21.59;49.19;97428.61;125893;1102;24567;-79
2021/05/12 08:31:29;;;;;;;10.58;3.90;;;;;;;21.76;49.26;97414.55;126156;1101;22748;-79
2021/05/12 08:33:57;;;;;;;;;;;;;;;21.93;49.04;97421.83;125865;1101;24884;-79
2021/05/12 08:36:25;;;;;;;7.05;3.70;;;;;;;22.05;48.02;97418.27;125991;1102;24181;-79
2021/05/12 08:38:52;;;;;;;9.05;4.25;;;;;;;22.17;47.04;97415.49;125899;1101;24268;-79
2021/05/12 08:41:20;;;;;;;12.45;4.45;;;;;;;22.28;46.74;97409.52;125863;1101;25340;-79
2021/05/12 08:43:48;;;;;;;8.15;3.85;;;;;;;22.43;46.78;97411.56;126140;1096;24545;-79
2021/05/12 08:46:19;;;;;;;5.63;3.38;;;;;;;22.57;45.09;97400.09;125913;1101;22835;-79
2021/05/12 08:48:47;;;;;;;11.33;3.20;;;;;;;22.71;44.06;97394.17;125937;1101;22740;-79
2021/05/12 08:51:15;;;;;;;8.10;3.38;;;;;;;22.85;43.44;97397.36;126083;1101;22879;-79
2021/05/12 08:53:43;;;;;;;7.15;3.20;;;;;;;22.96;43.43;97391.31;125840;1101;24380;-79
2021/05/12 08:56:11;;;;;;;4.73;2.98;;;;;;;23.10;43.84;97389.77;125945;1101;22815;-79
2021/05/12 08:58:39;;;;;;;4.57;3.30;;;;;;;23.24;43.08;97389.36;126110;1096;26356;-79
2021/05/12 09:01:06;;;;;;;5.28;2.78;;;;;;;23.36;42.62;97382.14;126123;1101;22754;-79
2021/05/12 09:03:36;;;;;;;8.60;2.80;;;;;;;23.52;42.02;97394.08;126361;1101;22786;-79
2021/05/12 09:06:07;;;;;;;5.40;3.00;;;;;;;23.66;42.52;97385.31;126314;1103;22809;-79
2021/05/12 09:08:36;;;;;;;6.75;2.85;;;;;;;23.83;42.93;97381.38;126150;1101;24408;-79
2021/05/12 09:11:04;;;;;;;9.43;3.00;;;;;;;23.96;41.75;97385.70;126488;1096;26222;-79
2021/05/12 09:13:41;;;;;;;6.55;2.88;;;;;;;24.11;41.13;97386.84;126125;1102;22825;-80
2021/05/12 09:16:16;;;;;;;4.35;2.30;;;;;;;24.24;41.49;97382.80;126452;1101;22823;-79
2021/05/12 09:18:59;;;;;;;4.45;2.58;;;;;;;24.41;41.35;97375.21;126039;1102;22747;-79
2021/05/12 09:21:57;;;;;;;5.20;2.48;;;;;;;24.55;40.05;97378.34;125823;1101;22801;-83
2021/05/12 09:24:32;;;;;;;4.00;2.80;;;;;;;24.70;39.13;97373.91;126093;1101;22743;-83
2021/05/12 09:27:09;;;;;;;5.13;2.43;;;;;;;24.78;37.50;97372.86;125897;1101;22816;-83
2021/05/12 09:29:42;;;;;;;4.50;3.30;;;;;;;24.83;38.35;97371.78;126163;1101;22761;-85
2021/05/12 09:32:17;;;;;;;6.45;3.13;;;;;;;24.92;38.27;97361.22;125939;1103;22745;-83
2021/05/12 09:35:06;;;;;;;7.03;3.00;;;;;;;25.04;39.20;97365.02;126221;1101;22769;-84
2021/05/12 09:37:40;;;;;;;6.50;2.47;;;;;;;25.18;37.76;97368.91;126081;1097;27180;-83
2021/05/12 09:40:11;;;;;;;7.33;2.83;;;;;;;25.30;37.33;97365.19;126159;1101;22743;-83
2021/05/12 09:42:57;;;;;;;5.48;2.60;;;;;;;25.41;37.16;97356.19;126162;1101;22876;-83
2021/05/12 09:45:38;;;;;;;6.88;2.80;;;;;;;25.57;37.20;97356.91;125974;1097;27277;-83
2021/05/12 09:48:06;;;;;;;3.95;2.50;;;;;;;25.69;36.78;97358.68;125893;1102;22744;-83
2021/05/12 09:50:40;;;;;;;3.60;2.50;;;;;;;25.80;37.00;97356.90;126200;1101;24554;-86
2021/05/12 09:53:13;;;;;;;7.08;2.45;;;;;;;25.92;36.10;97350.30;126104;1101;22885;-82
2021/05/12 09:55:52;;;;;;;6.43;2.60;;;;;;;26.05;35.53;97345.37;125899;1102;22765;-85
2021/05/12 09:58:24;;;;;;;3.35;2.20;;;;;;;26.17;35.75;97342.37;126123;1096;26338;-83
2021/05/12 10:00:52;;;;;;;3.20;2.10;;;;;;;26.25;35.41;97341.27;125869;1102;22804;-83
2021/05/12 10:03:28;;;;;;;4.53;2.38;;;;;;;26.31;35.48;97345.36;125871;1101;22773;-85
2021/05/12 10:06:04;;;;;;;4.28;2.18;;;;;;;26.46;35.16;97342.77;126204;1101;24435;-84
2021/05/12 10:08:35;;;;;;;7.83;2.53;;;;;;;26.56;35.27;97342.12;126149;1101;22736;-83
2021/05/12 10:11:11;;;;;;;4.35;2.45;;;;;;;26.66;35.07;97335.88;125939;1102;24581;-85
2021/05/12 10:13:42;;;;;;;3.63;2.45;;;;;;;26.73;35.44;97346.34;126106;1101;22833;-83
2021/05/12 10:16:16;;;;;;;4.90;2.80;;;;;;;26.81;35.16;97339.67;125860;1102;22819;-85
2021/05/12 10:18:44;;;;;;;7.40;2.70;;;;;;;26.93;34.87;97340.59;125858;1103;22764;-84
2021/05/12 10:21:12;;;;;;;5.10;2.50;;;;;;;27.04;34.52;97333.16;126149;1096;26241;-84
2021/05/12 10:23:41;;;;;;;3.05;1.95;;;;;;;27.19;34.95;97331.31;125904;1097;22788;-85
2021/05/12 10:26:09;;;;;;;6.28;2.60;;;;;;;27.26;33.98;97334.97;126211;1101;22794;-84
2021/05/12 10:28:40;;;;;;;4.20;2.33;;;;;;;27.34;33.77;97335.91;125865;1095;27223;-83
2021/05/12 10:31:11;;;;;;;4.70;2.33;;;;;;;27.49;35.13;97327.65;125822;1102;22750;-83
2021/05/12 10:33:47;;;;;;;3.50;2.33;;;;;;;27.57;32.31;97329.30;125897;1101;24546;-83
2021/05/12 10:36:15;;;;;;;2.80;2.00;;;;;;;27.68;32.19;97333.02;125898;1104;22729;-83
2021/05/12 10:38:48;;;;;;;3.58;2.30;;;;;;;27.79;32.12;97325.51;125880;1101;22825;-83
2021/05/12 10:41:37;;;;;;;6.15;2.20;;;;;;;27.92;31.66;97319.64;125901;1096;27301;-83
2021/05/12 10:46:56;;;;;;;4.18;2.48;;;;;;;28.15;30.73;97316.60;125899;1101;24425;-83
2021/05/12 10:49:25;;;;;;;3.58;2.10;;;;;;;28.31;31.35;97313.50;126260;1101;22859;-83
2021/05/12 10:51:53;;;;;;;6.03;2.73;;;;;;;28.43;31.37;97315.97;126227;1096;26217;-83
2021/05/12 10:54:44;;;;;;;5.50;2.20;;;;;;;28.54;29.85;97307.66;125938;1101;22935;-84
2021/05/12 10:57:46;;;;;;;4.15;2.50;;;;;;;28.64;29.06;97306.11;126198;1101;22775;-84
2021/05/12 11:00:17;;;;;;;4.28;2.00;;;;;;;28.67;29.33;97296.89;126093;1101;22775;-80
2021/05/12 11:02:51;;;;;;;2.53;1.65;;;;;;;28.77;29.47;97299.77;126180;1102;23626;-80
2021/05/12 11:05:19;;;;;;;3.13;1.83;;;;;;;28.84;28.10;97292.57;126312;1097;26345;-80
2021/05/12 11:08:15;;;;;;;3.85;1.78;;;;;;;28.88;27.87;97296.17;126256;1102;22916;-80
2021/05/12 11:11:03;;;;;;;3.85;2.08;;;;;;;28.89;28.26;97298.59;126114;1101;22986;-80
2021/05/12 11:13:35;;;;;;;1.78;1.60;;;;;;;28.97;26.77;97296.63;126199;1101;24384;-80
2021/05/12 11:16:04;;;;;;;2.77;1.80;;;;;;;29.01;25.32;97297.43;126324;1101;22815;-80
2021/05/12 11:18:39;;;;;;;3.70;1.60;;;;;;;29.06;26.17;97285.83;126327;1101;22905;-80
2021/05/12 11:21:36;;;;;;;2.80;1.80;;;;;;;29.15;27.27;97288.29;126500;1101;22748;-80
2021/05/12 11:24:08;;;;;;;4.48;1.80;;;;;;;29.30;26.71;97281.48;125863;1096;22833;-80
2021/05/12 11:32:14;;;;;;;3.80;1.93;;;;;;;29.58;26.77;97276.31;125864;1101;22740;-80
2021/05/12 11:34:43;;;;;;;6.23;2.00;;;;;;;29.63;26.25;97281.53;125878;1096;22772;-80
2021/05/12 11:37:16;;;;;;;2.95;1.78;;;;;;;29.74;26.95;97276.70;126143;1096;28366;-80
2021/05/12 11:39:58;;;;;;;2.63;2.25;;;;;;;29.84;25.62;97269.52;126157;1096;22910;-80
2021/05/12 11:42:32;;;;;;;2.80;2.20;;;;;;;29.90;26.69;97265.88;126137;1101;22981;-80
2021/05/12 11:45:21;;;;;;;5.03;1.65;;;;;;;30.05;26.46;97258.25;126285;1101;22781;-80
2021/05/12 11:48:02;;;;;;;4.50;2.10;;;;;;;30.16;26.50;97263.05;125866;1102;22910;-80
2021/05/12 11:50:32;;;;;;;3.28;2.08;;;;;;;30.28;26.61;97254.98;125941;1102;24401;-80
2021/05/12 11:53:00;;;;;;;4.25;2.20;;;;;;;30.35;27.22;97248.58;125892;1101;22901;-80
2021/05/12 11:55:31;;;;;;;6.53;2.45;;;;;;;30.41;25.91;97232.10;126042;1101;22762;-80
2021/05/12 11:58:01;;;;;;;3.08;1.90;;;;;;;30.46;27.33;97238.09;126102;1101;22823;-80